Wheeler Observed Data For Previous 48 Hours

Caption
Day and Hour Reservoir Elevation (behind dam)* Tailwater Elevation (below dam)* Average Hourly Discharge*
11/11/2018 1 AM CST 552.26 507.49 59,123
11/11/2018 2 AM CST 552.36 507.26 50,634
11/11/2018 3 AM CST 552.42 507.12 50,028
11/11/2018 4 AM CST 552.46 506.94 49,711
11/11/2018 5 AM CST 552.46 507.14 58,911
11/11/2018 6 AM CST 552.41 507.42 77,770
11/11/2018 7 AM CST 552.41 507.56 90,820
11/11/2018 8 AM CST 552.41 507.61 91,109
11/11/2018 9 AM CST 552.39 507.66 91,156
11/11/2018 10 AM CST 552.38 507.72 90,875
11/11/2018 11 AM CST 552.35 507.75 90,964
11/11/2018 12 PM CST 552.38 507.62 78,789
11/11/2018 1 PM CST 552.39 507.60 78,344
11/11/2018 2 PM CST 552.39 507.69 78,411
11/11/2018 3 PM CST 552.40 507.66 78,476
11/11/2018 4 PM CST 552.37 507.80 78,556
11/11/2018 5 PM CST 552.35 507.93 91,186
11/11/2018 6 PM CST 552.35 508.05 90,942
11/11/2018 7 PM CST 552.34 508.07 91,250
11/11/2018 8 PM CST 552.34 508.12 91,157
11/11/2018 9 PM CST 552.32 508.24 91,193
11/11/2018 10 PM CST 552.27 508.23 91,098
11/11/2018 11 PM CST 552.34 508.10 78,699
11/12/2018 12 AM CST 552.43 507.80 59,932
11/12/2018 1 AM CST 552.49 507.59 59,534
11/12/2018 2 AM CST 552.50 507.52 59,698
11/12/2018 3 AM CST 552.55 507.36 59,591
11/12/2018 4 AM CST 552.64 507.22 59,704
11/12/2018 5 AM CST 552.63 507.19 59,964
11/12/2018 6 AM CST 552.59 507.39 78,509
11/12/2018 7 AM CST 552.60 507.52 91,387
11/12/2018 8 AM CST 552.61 507.55 91,656
11/12/2018 9 AM CST 552.58 507.57 91,803
11/12/2018 10 AM CST 552.55 507.53 91,640
11/12/2018 11 AM CST 552.61 507.32 79,162
11/12/2018 12 PM CST 552.62 507.35 79,228
11/12/2018 1 PM CST 552.62 507.21 79,015
11/12/2018 2 PM CST 552.70 506.54 75,556
11/12/2018 3 PM CST 552.71 506.47 74,985
11/12/2018 4 PM CST 552.71 506.33 75,114
11/12/2018 5 PM CST 552.67 506.36 75,123
11/12/2018 6 PM CST 552.61 506.37 89,569
11/12/2018 7 PM CST 552.62 506.41 94,934
11/12/2018 8 PM CST 552.62 506.44 94,855
11/12/2018 9 PM CST 552.62 506.51 94,734
11/12/2018 10 PM CST 552.63 506.59 94,815
11/12/2018 11 PM CST 552.63 506.54 94,938
11/13/2018 12 AM CST 552.64 506.58 94,795
11/13/2018 1 AM CST 552.67 506.61 94,776
11/13/2018 2 AM CST 552.68 506.64 94,885
11/13/2018 3 AM CST 552.69 506.67 94,717
11/13/2018 4 AM CST 552.68 506.72 94,705
11/13/2018 5 AM CST 552.68 506.71 94,494
11/13/2018 6 AM CST 552.71 506.73 94,667
11/13/2018 7 AM CST 552.74 506.78 94,787
11/13/2018 8 AM CST 552.79 506.82 94,863
11/13/2018 9 AM CST 552.76 507.10 100,114

Elevations are in feet above sea level. Discharges are in cubic feet per second and are reported at the end of the hour.